createdAt,value
2023-08-02T00:01:09.475Z,70.20
2023-08-02T00:03:36.293Z,69.82
2023-08-02T00:06:03.336Z,69.23
2023-08-02T00:08:30.750Z,69.55
2023-08-02T00:10:57.861Z,69.93
2023-08-02T00:13:24.835Z,69.40
2023-08-02T00:15:53.740Z,69.27
2023-08-02T00:18:20.621Z,69.08
2023-08-02T00:20:48.569Z,69.11
2023-08-02T00:23:15.753Z,69.32
2023-08-02T00:25:42.540Z,69.49
2023-08-02T00:28:09.402Z,69.80
2023-08-02T00:30:48.223Z,69.80
2023-08-02T00:33:15.403Z,69.92
2023-08-02T00:35:51.578Z,69.78
2023-08-02T00:38:18.697Z,69.61
2023-08-02T00:40:45.513Z,69.34
2023-08-02T00:43:12.306Z,69.09
2023-08-02T00:45:39.118Z,69.21
2023-08-02T00:48:06.237Z,69.51
2023-08-02T00:50:36.652Z,69.84
2023-08-02T00:53:04.063Z,69.60
2023-08-02T00:55:30.815Z,69.82
2023-08-02T00:57:58.106Z,70.18
2023-08-02T01:00:25.079Z,70.29
2023-08-02T01:02:51.986Z,70.25
2023-08-02T01:05:25.157Z,69.86
2023-08-02T01:07:59.596Z,69.91
2023-08-02T01:10:51.157Z,69.85
2023-08-02T01:13:19.905Z,69.52
2023-08-02T01:15:48.990Z,70.08
2023-08-02T01:18:16.516Z,70.50
2023-08-02T01:20:43.418Z,70.73
2023-08-02T01:23:10.120Z,70.52
2023-08-02T01:25:37.832Z,70.66
2023-08-02T01:28:12.560Z,71.18
2023-08-02T01:30:40.396Z,71.45
2023-08-02T01:33:07.160Z,71.71
2023-08-02T01:35:35.628Z,71.82
2023-08-02T01:38:02.801Z,72.04
2023-08-02T01:40:29.526Z,72.54
2023-08-02T01:42:56.350Z,72.84
2023-08-02T01:45:23.574Z,72.97
2023-08-02T01:47:52.373Z,72.69
2023-08-02T01:50:19.219Z,73.82
2023-08-02T01:52:50.226Z,73.47
2023-08-02T01:55:19.331Z,73.76
2023-08-02T01:57:46.053Z,73.48
2023-08-02T02:00:13.849Z,73.70
2023-08-02T02:02:40.971Z,73.34
2023-08-02T02:05:08.029Z,73.70
2023-08-02T02:07:34.737Z,74.09
2023-08-02T02:10:01.468Z,74.96
2023-08-02T02:12:28.410Z,75.32
2023-08-02T02:14:55.239Z,75.65
2023-08-02T02:17:22.195Z,76.30
2023-08-02T02:19:48.850Z,76.98
2023-08-02T02:22:15.767Z,76.83
2023-08-02T02:24:42.656Z,76.58
2023-08-02T02:27:09.422Z,76.30
2023-08-02T02:29:36.211Z,76.78
2023-08-02T02:32:02.946Z,77.63
2023-08-02T02:34:29.615Z,78.45
2023-08-02T02:36:56.322Z,78.11
2023-08-02T02:39:23.059Z,78.10
2023-08-02T02:41:49.745Z,77.82
2023-08-02T02:44:16.719Z,78.31
2023-08-02T02:46:43.554Z,78.64
2023-08-02T02:49:10.658Z,78.93
2023-08-02T02:51:37.356Z,79.38
2023-08-02T02:54:04.118Z,78.91
2023-08-02T02:56:30.822Z,78.43
2023-08-02T02:58:57.536Z,78.17
2023-08-02T03:01:24.331Z,78.30
2023-08-02T03:03:51.032Z,78.69
2023-08-02T03:06:17.852Z,77.95
2023-08-02T03:08:44.764Z,78.34
2023-08-02T03:11:11.517Z,78.42
2023-08-02T03:13:38.487Z,78.27
2023-08-02T03:16:05.377Z,78.58
2023-08-02T03:18:32.168Z,79.48
2023-08-02T03:20:58.916Z,79.18
2023-08-02T03:23:25.578Z,78.46
2023-08-02T03:25:52.266Z,78.74
2023-08-02T03:28:18.943Z,79.03
2023-08-02T03:30:45.729Z,78.29
2023-08-02T03:33:12.735Z,77.84
2023-08-02T03:35:39.577Z,77.89
2023-08-02T03:38:06.237Z,77.67
2023-08-02T03:40:32.941Z,76.09
2023-08-02T03:42:59.621Z,74.44
2023-08-02T03:45:26.782Z,73.50
2023-08-02T03:47:53.754Z,73.69
2023-08-02T03:50:20.560Z,74.04
2023-08-02T03:52:47.286Z,74.13
2023-08-02T03:55:13.969Z,74.04
2023-08-02T03:57:41.167Z,73.39
2023-08-02T04:00:08.680Z,73.35
2023-08-02T04:02:35.388Z,73.67
2023-08-02T04:05:02.585Z,74.09
2023-08-02T04:07:29.261Z,73.85
2023-08-02T04:09:55.944Z,73.51
2023-08-02T04:12:22.832Z,73.43
2023-08-02T04:14:49.516Z,73.35
2023-08-02T04:17:16.220Z,73.29
2023-08-02T04:19:42.973Z,73.01
2023-08-02T04:22:09.707Z,72.42
2023-08-02T04:24:36.397Z,72.07
2023-08-02T04:27:03.260Z,71.13
2023-08-02T04:29:29.962Z,70.55
2023-08-02T04:31:56.901Z,69.03
2023-08-02T04:34:23.714Z,67.67
2023-08-02T04:36:50.420Z,65.80
2023-08-02T04:39:17.210Z,64.10
2023-08-02T04:41:44.154Z,63.52
2023-08-02T04:44:10.862Z,63.92
2023-08-02T04:46:37.556Z,66.02
2023-08-02T04:49:04.602Z,65.70
2023-08-02T04:51:32.863Z,64.53
2023-08-02T04:53:59.577Z,64.31
2023-08-02T04:56:26.325Z,65.49
2023-08-02T04:58:52.970Z,65.37
2023-08-02T05:01:19.702Z,66.35
2023-08-02T05:03:46.657Z,66.29
2023-08-02T05:06:13.530Z,66.65
2023-08-02T05:08:40.350Z,67.39
2023-08-02T05:11:08.188Z,66.88
2023-08-02T05:13:35.313Z,66.21
2023-08-02T05:16:02.358Z,65.73
2023-08-02T05:18:29.131Z,64.94
2023-08-02T05:20:56.095Z,64.46
2023-08-02T05:23:23.103Z,64.38
2023-08-02T05:25:49.871Z,64.25
2023-08-02T05:28:16.684Z,63.78
2023-08-02T05:30:43.398Z,64.27
2023-08-02T05:33:10.093Z,64.11
2023-08-02T05:35:36.842Z,64.08
2023-08-02T05:38:03.648Z,63.91
2023-08-02T05:40:30.387Z,63.38
2023-08-02T05:42:58.442Z,62.71
2023-08-02T05:45:25.377Z,60.65
2023-08-02T05:47:52.614Z,60.13
2023-08-02T05:50:19.442Z,60.15
2023-08-02T05:52:46.167Z,59.69
2023-08-02T05:55:13.546Z,58.25
2023-08-02T05:57:40.412Z,57.33
2023-08-02T06:00:09.661Z,55.18
2023-08-02T06:02:37.176Z,52.67
2023-08-02T06:05:04.122Z,52.37
2023-08-02T06:07:30.784Z,50.36
2023-08-02T06:09:57.475Z,48.73
2023-08-02T06:12:24.540Z,47.98
2023-08-02T06:14:51.307Z,47.69
2023-08-02T06:17:18.291Z,45.88
2023-08-02T06:19:45.280Z,44.31
2023-08-02T06:22:12.007Z,42.92
2023-08-02T06:24:38.919Z,42.04
2023-08-02T06:27:05.880Z,42.23
2023-08-02T06:29:32.587Z,41.70
2023-08-02T06:31:59.272Z,41.03
2023-08-02T06:34:25.997Z,41.52
2023-08-02T06:36:52.741Z,41.71
2023-08-02T06:39:19.453Z,41.38
2023-08-02T06:41:46.144Z,42.25
2023-08-02T06:44:13.239Z,43.64
2023-08-02T06:46:41.754Z,43.81
2023-08-02T06:49:08.544Z,42.87
2023-08-02T06:51:35.278Z,42.35
2023-08-02T06:54:02.006Z,41.69
2023-08-02T06:56:28.751Z,41.73
2023-08-02T06:58:55.392Z,41.03
2023-08-02T07:01:23.901Z,40.99
2023-08-02T07:03:51.215Z,40.88
2023-08-02T07:06:20.000Z,41.88
2023-08-02T07:08:47.460Z,41.80
2023-08-02T07:11:26.191Z,41.00
2023-08-02T07:14:00.996Z,41.94
2023-08-02T07:16:27.778Z,42.96
2023-08-02T07:18:54.482Z,41.38
2023-08-02T07:21:21.363Z,40.98
2023-08-02T07:23:48.070Z,41.13
2023-08-02T07:26:14.854Z,41.67
2023-08-02T07:28:41.527Z,42.13
2023-08-02T07:31:13.321Z,43.27
2023-08-02T07:33:40.805Z,42.11
2023-08-02T07:36:18.234Z,42.67
2023-08-02T07:38:45.860Z,42.24
2023-08-02T07:41:12.793Z,42.72
2023-08-02T07:43:39.521Z,42.63
2023-08-02T07:46:07.616Z,43.38
2023-08-02T07:48:34.332Z,42.42
2023-08-02T07:51:05.252Z,43.12
2023-08-02T07:53:31.930Z,44.40
2023-08-02T07:56:03.013Z,44.51
2023-08-02T07:58:30.105Z,43.79
2023-08-02T08:00:56.813Z,43.54
2023-08-02T08:03:23.947Z,43.55
2023-08-02T08:05:50.670Z,44.61
2023-08-02T08:08:18.121Z,44.63
2023-08-02T08:10:53.113Z,44.00
2023-08-02T08:13:20.040Z,44.61
2023-08-02T08:15:47.312Z,43.52
2023-08-02T08:18:14.045Z,43.46
2023-08-02T08:20:40.748Z,43.79
2023-08-02T08:23:07.531Z,44.54
2023-08-02T08:25:34.222Z,45.29
2023-08-02T08:28:00.956Z,46.10
2023-08-02T08:30:27.729Z,46.08
2023-08-02T08:32:54.590Z,46.37
2023-08-02T08:35:21.347Z,46.51
2023-08-02T08:37:50.454Z,47.13
2023-08-02T08:40:21.473Z,47.34
2023-08-02T08:42:52.949Z,47.29
2023-08-02T08:45:21.951Z,47.39
2023-08-02T08:47:50.247Z,46.98
2023-08-02T08:50:18.517Z,45.54
2023-08-02T08:52:52.949Z,44.17
2023-08-02T08:55:20.356Z,42.97
2023-08-02T08:57:47.159Z,42.94
2023-08-02T09:00:17.372Z,42.20
2023-08-02T09:02:45.211Z,42.66
2023-08-02T09:05:11.961Z,43.45
2023-08-02T09:07:38.689Z,43.96
2023-08-02T09:10:06.478Z,42.64
2023-08-02T09:12:43.792Z,42.69
2023-08-02T09:15:10.704Z,42.82
2023-08-02T09:17:52.420Z,43.09
2023-08-02T09:20:24.447Z,42.70
2023-08-02T09:22:51.576Z,41.94
2023-08-02T09:25:29.480Z,43.82
2023-08-02T09:27:59.789Z,44.68
2023-08-02T09:30:31.924Z,45.16
2023-08-02T09:33:03.930Z,45.66
2023-08-02T09:35:54.709Z,46.51
2023-08-02T09:38:21.581Z,47.04
2023-08-02T09:43:20.247Z,46.61
2023-08-02T09:45:47.123Z,46.84
2023-08-02T09:48:14.093Z,47.28
2023-08-02T09:51:04.976Z,46.30
2023-08-02T09:53:32.889Z,45.48
2023-08-02T09:56:01.932Z,45.68
2023-08-02T09:58:31.461Z,46.58
2023-08-02T10:00:59.300Z,45.89
2023-08-02T10:03:28.157Z,45.73
2023-08-02T10:05:59.563Z,45.60
2023-08-02T10:08:29.545Z,45.64
2023-08-02T10:10:56.857Z,45.78
2023-08-02T10:13:27.656Z,46.00
2023-08-02T10:15:56.707Z,47.05
2023-08-02T10:18:26.187Z,47.06
2023-08-02T10:20:54.226Z,46.91
2023-08-02T10:23:20.926Z,46.90
2023-08-02T10:25:48.523Z,47.65
2023-08-02T10:28:16.244Z,47.79
2023-08-02T10:30:43.388Z,47.33
2023-08-02T10:33:15.598Z,47.33
2023-08-02T10:35:56.433Z,46.79
2023-08-02T10:38:28.063Z,47.07
2023-08-02T10:41:08.926Z,47.71
2023-08-02T10:43:56.185Z,47.59
2023-08-02T10:46:24.623Z,47.41
2023-08-02T10:49:18.759Z,46.65
2023-08-02T10:51:46.728Z,46.82
2023-08-02T10:54:24.445Z,46.82
2023-08-02T10:56:58.371Z,46.83
2023-08-02T10:59:25.089Z,47.18
2023-08-02T11:02:02.197Z,47.30
2023-08-02T11:04:33.941Z,47.22
2023-08-02T11:07:25.649Z,47.69
2023-08-02T11:09:55.834Z,48.03
2023-08-02T11:12:23.898Z,47.27
2023-08-02T11:14:53.390Z,46.48
2023-08-02T11:20:09.788Z,46.82
2023-08-02T11:22:40.711Z,47.11
2023-08-02T11:25:08.249Z,46.75
2023-08-02T11:30:09.324Z,46.55
2023-08-02T11:32:46.725Z,46.26
2023-08-02T11:35:20.611Z,46.29
2023-08-02T11:37:47.848Z,46.80
2023-08-02T11:42:49.844Z,45.94
2023-08-02T11:45:28.779Z,45.89
2023-08-02T11:48:00.289Z,46.16
2023-08-02T11:50:36.557Z,46.03
2023-08-02T11:53:08.337Z,45.35
2023-08-02T11:55:37.373Z,45.77
2023-08-02T11:58:06.627Z,45.39
2023-08-02T12:00:34.871Z,45.45
2023-08-02T12:03:15.652Z,45.36
2023-08-02T12:05:44.933Z,45.18
2023-08-02T12:08:14.377Z,46.04
2023-08-02T12:10:42.280Z,46.08
2023-08-02T12:13:16.447Z,46.04
2023-08-02T12:16:02.942Z,45.91
2023-08-02T12:18:29.728Z,45.97
2023-08-02T12:20:56.667Z,45.63
2023-08-02T12:23:33.633Z,46.11
2023-08-02T12:26:00.986Z,45.53
2023-08-02T12:28:43.697Z,45.25
2023-08-02T12:31:10.579Z,45.49
2023-08-02T12:33:38.342Z,45.52
2023-08-02T12:36:05.527Z,45.71
2023-08-02T12:38:32.826Z,45.79
2023-08-02T12:41:00.917Z,45.08
2023-08-02T12:43:28.358Z,45.30
2023-08-02T12:45:55.354Z,45.22
2023-08-02T12:48:22.141Z,45.06
2023-08-02T12:50:48.961Z,45.20
2023-08-02T12:53:15.634Z,45.63
2023-08-02T12:55:42.422Z,44.96
2023-08-02T12:58:09.185Z,45.58
2023-08-02T13:00:35.982Z,45.13
2023-08-02T13:03:02.852Z,45.28
2023-08-02T13:05:29.566Z,44.98
2023-08-02T13:07:56.689Z,44.68
2023-08-02T13:10:23.688Z,44.88
2023-08-02T13:12:50.481Z,44.83
2023-08-02T13:15:19.661Z,45.24
2023-08-02T13:17:48.985Z,45.04
2023-08-02T13:20:15.997Z,45.15
2023-08-02T13:22:42.821Z,45.28
2023-08-02T13:25:09.802Z,45.57
2023-08-02T13:27:36.490Z,45.19
2023-08-02T13:30:04.158Z,44.84
2023-08-02T13:32:35.132Z,44.95
2023-08-02T13:35:06.728Z,45.71
2023-08-02T13:37:34.418Z,45.28
2023-08-02T13:40:01.978Z,45.30
2023-08-02T13:42:29.275Z,45.03
2023-08-02T13:44:56.318Z,45.21
2023-08-02T13:47:23.124Z,45.34
2023-08-02T13:49:50.092Z,44.88
2023-08-02T13:52:17.114Z,44.56
2023-08-02T13:54:44.102Z,44.93
2023-08-02T13:57:10.946Z,45.11
2023-08-02T13:59:39.621Z,44.83
2023-08-02T14:02:07.839Z,44.84
2023-08-02T14:04:35.066Z,45.03
2023-08-02T14:07:02.075Z,44.93
2023-08-02T14:09:28.935Z,44.80
2023-08-02T14:11:55.616Z,44.92
2023-08-02T14:14:22.282Z,45.23
2023-08-02T14:16:49.279Z,45.35
2023-08-02T14:19:16.216Z,45.40
2023-08-02T14:21:43.034Z,44.88
2023-08-02T14:24:10.108Z,45.10
2023-08-02T14:26:36.983Z,45.32
2023-08-02T14:29:03.671Z,45.13
2023-08-02T14:31:30.363Z,45.08
2023-08-02T14:33:57.079Z,44.67
2023-08-02T14:36:23.841Z,44.49
2023-08-02T14:38:50.643Z,44.17
2023-08-02T14:41:17.489Z,44.14
2023-08-02T14:43:44.184Z,43.60
2023-08-02T14:46:11.459Z,44.17
2023-08-02T14:48:38.208Z,43.74
2023-08-02T14:51:04.916Z,43.69
2023-08-02T14:53:31.815Z,43.72
2023-08-02T14:55:58.537Z,43.54
2023-08-02T14:58:25.410Z,43.74
2023-08-02T15:00:53.319Z,43.66
2023-08-02T15:03:20.293Z,43.39
2023-08-02T15:05:47.153Z,43.59
2023-08-02T15:08:13.901Z,43.85
2023-08-02T15:10:40.644Z,44.11
2023-08-02T15:13:07.438Z,44.17
2023-08-02T15:15:34.240Z,44.29
2023-08-02T15:18:01.102Z,44.59
2023-08-02T15:20:27.935Z,44.86
2023-08-02T15:22:54.734Z,44.88
2023-08-02T15:25:21.439Z,44.89
2023-08-02T15:27:48.166Z,44.89
2023-08-02T15:30:15.553Z,45.01
2023-08-02T15:32:42.604Z,44.82
2023-08-02T15:35:09.481Z,44.58
2023-08-02T15:37:36.323Z,46.46
2023-08-02T15:40:04.043Z,47.66
2023-08-02T15:42:31.026Z,47.80
2023-08-02T15:44:58.632Z,48.36
2023-08-02T15:47:27.006Z,48.50
2023-08-02T15:49:53.858Z,47.48
2023-08-02T15:52:20.541Z,48.66
2023-08-02T15:54:47.260Z,49.90
2023-08-02T15:57:14.012Z,50.59
2023-08-02T15:59:40.662Z,50.27
2023-08-02T16:02:07.367Z,50.48
2023-08-02T16:04:34.278Z,50.80
2023-08-02T16:07:01.053Z,51.34
2023-08-02T16:09:27.749Z,51.34
2023-08-02T16:11:54.464Z,51.42
2023-08-02T16:14:21.303Z,52.22
2023-08-02T16:16:48.048Z,51.63
2023-08-02T16:19:14.838Z,51.80
2023-08-02T16:21:41.527Z,52.09
2023-08-02T16:24:08.222Z,52.19
2023-08-02T16:26:34.976Z,51.99
2023-08-02T16:29:01.996Z,52.07
2023-08-02T16:31:28.765Z,52.37
2023-08-02T16:33:55.466Z,51.94
2023-08-02T16:36:22.198Z,52.40
2023-08-02T16:38:48.878Z,52.28
2023-08-02T16:41:16.087Z,52.58
2023-08-02T16:43:43.000Z,52.84
2023-08-02T16:46:09.764Z,53.03
2023-08-02T16:48:36.572Z,53.24
2023-08-02T16:51:03.283Z,53.34
2023-08-02T16:53:30.076Z,53.22
2023-08-02T16:55:56.844Z,53.05
2023-08-02T16:58:23.740Z,53.28
2023-08-02T17:00:53.258Z,53.48
2023-08-02T17:03:19.973Z,53.60
2023-08-02T17:05:47.841Z,53.50
2023-08-02T17:08:14.538Z,53.76
2023-08-02T17:10:41.244Z,53.96
2023-08-02T17:13:07.952Z,54.19
2023-08-02T17:15:37.044Z,54.16
2023-08-02T17:18:05.008Z,54.26
2023-08-02T17:20:32.897Z,54.49
2023-08-02T17:23:00.136Z,54.56
2023-08-02T17:25:27.586Z,54.71
2023-08-02T17:27:54.302Z,54.81
2023-08-02T17:30:21.105Z,55.12
2023-08-02T17:32:48.018Z,55.50
2023-08-02T17:35:14.793Z,55.60
2023-08-02T17:37:41.782Z,55.57
2023-08-02T17:40:12.213Z,55.60
2023-08-02T17:42:38.930Z,55.51
2023-08-02T17:45:06.883Z,55.64
2023-08-02T17:47:33.890Z,55.65
2023-08-02T17:50:00.594Z,55.69
2023-08-02T17:52:27.356Z,55.67
2023-08-02T17:54:54.202Z,55.90
2023-08-02T17:57:20.947Z,56.01
2023-08-02T17:59:55.682Z,56.24
2023-08-02T18:02:23.673Z,56.47
2023-08-02T18:04:55.422Z,56.68
2023-08-02T18:07:22.278Z,56.86
2023-08-02T18:09:48.984Z,57.14
2023-08-02T18:12:15.699Z,57.39
2023-08-02T18:14:42.359Z,57.60
2023-08-02T18:17:09.126Z,57.88
2023-08-02T18:19:36.746Z,58.23
2023-08-02T18:22:03.846Z,58.56
2023-08-02T18:24:37.033Z,58.34
2023-08-02T18:27:06.424Z,58.49
2023-08-02T18:29:33.443Z,58.38
2023-08-02T18:32:00.293Z,58.48
2023-08-02T18:34:29.040Z,58.48
2023-08-02T18:36:55.790Z,58.52
2023-08-02T18:39:22.601Z,58.80
2023-08-02T18:41:49.477Z,58.91
2023-08-02T18:44:16.544Z,58.61
2023-08-02T18:46:43.326Z,58.56
2023-08-02T18:49:10.300Z,58.70
2023-08-02T18:51:36.993Z,58.96
2023-08-02T18:54:05.102Z,59.16
2023-08-02T18:56:31.970Z,59.36
2023-08-02T18:59:01.077Z,59.51
2023-08-02T19:01:28.554Z,59.53
2023-08-02T19:03:56.997Z,59.60
2023-08-02T19:06:23.912Z,59.92
2023-08-02T19:08:51.393Z,60.04
2023-08-02T19:11:23.822Z,60.21
2023-08-02T19:13:53.738Z,60.44
2023-08-02T19:16:20.647Z,60.48
2023-08-02T19:18:47.646Z,60.77
2023-08-02T19:21:15.809Z,60.89
2023-08-02T19:23:45.016Z,60.78
2023-08-02T19:26:22.574Z,61.12
2023-08-02T19:28:50.907Z,61.26
2023-08-02T19:31:20.104Z,61.49
2023-08-02T19:33:47.264Z,61.72
2023-08-02T19:36:23.236Z,61.62
2023-08-02T19:38:50.440Z,61.95
2023-08-02T19:41:25.041Z,62.00
2023-08-02T19:43:51.778Z,62.23
2023-08-02T19:46:20.654Z,62.09
2023-08-02T19:48:47.339Z,62.43
2023-08-02T19:51:14.871Z,62.65
2023-08-02T19:53:45.916Z,62.77
2023-08-02T19:56:20.842Z,63.13
2023-08-02T19:58:47.741Z,63.38
2023-08-02T20:01:14.449Z,63.92
2023-08-02T20:03:41.218Z,64.12
2023-08-02T20:06:09.287Z,64.34
2023-08-02T20:08:36.554Z,64.47
2023-08-02T20:11:07.535Z,65.07
2023-08-02T20:13:42.201Z,65.68
2023-08-02T20:16:21.258Z,66.16
2023-08-02T20:18:49.658Z,66.43
2023-08-02T20:23:47.594Z,66.85
2023-08-02T20:26:15.788Z,67.28
2023-08-02T20:28:46.527Z,67.71
2023-08-02T20:31:19.444Z,68.14
2023-08-02T20:33:48.215Z,69.42
2023-08-02T20:36:16.128Z,69.07
2023-08-02T20:38:46.734Z,69.33
2023-08-02T20:41:18.342Z,69.81
2023-08-02T20:43:49.849Z,69.85
2023-08-02T20:46:20.588Z,70.34
2023-08-02T20:48:48.662Z,70.91
2023-08-02T20:51:16.255Z,70.76
2023-08-02T20:53:43.463Z,70.80
2023-08-02T20:56:10.893Z,71.34
2023-08-02T20:58:38.721Z,71.45
2023-08-02T21:01:06.750Z,71.73
2023-08-02T21:03:37.816Z,72.07
2023-08-02T21:06:06.237Z,72.19
2023-08-02T21:08:34.295Z,71.88
2023-08-02T21:11:03.043Z,72.00
2023-08-02T21:13:30.532Z,72.42
2023-08-02T21:15:57.299Z,73.61
2023-08-02T21:18:29.799Z,73.77
2023-08-02T21:20:57.569Z,74.15
2023-08-02T21:23:24.592Z,74.22
2023-08-02T21:25:53.917Z,74.90
2023-08-02T21:28:25.942Z,74.63
2023-08-02T21:31:00.497Z,74.73
2023-08-02T21:33:32.087Z,74.88
2023-08-02T21:36:00.197Z,75.48
2023-08-02T21:38:35.851Z,75.32
2023-08-02T21:41:05.202Z,75.08
2023-08-02T21:43:34.372Z,75.20
2023-08-02T21:46:06.597Z,75.23
2023-08-02T21:48:44.768Z,74.98
2023-08-02T21:51:12.489Z,74.69
2023-08-02T21:53:39.464Z,74.56
2023-08-02T21:56:09.864Z,75.26
2023-08-02T21:58:38.790Z,75.09
2023-08-02T22:01:06.070Z,74.26
2023-08-02T22:03:34.232Z,74.95
2023-08-02T22:06:03.629Z,75.25
2023-08-02T22:08:48.366Z,75.23
2023-08-02T22:11:16.781Z,74.90
2023-08-02T22:13:47.809Z,74.77
2023-08-02T22:16:16.251Z,74.48
2023-08-02T22:18:43.898Z,74.29
2023-08-02T22:21:11.058Z,74.26
2023-08-02T22:23:37.785Z,75.06
2023-08-02T22:26:05.313Z,74.42
2023-08-02T22:28:32.978Z,74.41
2023-08-02T22:30:59.721Z,74.38
2023-08-02T22:33:26.502Z,74.45
2023-08-02T22:35:53.170Z,75.04
2023-08-02T22:38:22.894Z,75.38
2023-08-02T22:40:49.717Z,75.93
2023-08-02T22:43:16.756Z,76.32
2023-08-02T22:45:43.500Z,76.81
2023-08-02T22:50:55.496Z,76.72
2023-08-02T22:53:23.552Z,76.74
2023-08-02T22:55:50.614Z,77.29
2023-08-02T22:58:17.303Z,77.62
2023-08-02T23:00:44.091Z,78.08
2023-08-02T23:03:38.569Z,78.60
2023-08-02T23:06:06.304Z,79.29
2023-08-02T23:08:37.691Z,79.41
2023-08-02T23:11:05.288Z,79.65
2023-08-02T23:13:32.395Z,79.75
2023-08-02T23:15:59.093Z,79.51
2023-08-02T23:18:25.790Z,79.06
2023-08-02T23:20:53.889Z,80.08
2023-08-02T23:23:26.692Z,80.42
2023-08-02T23:26:01.551Z,81.16
2023-08-02T23:28:30.032Z,80.48
2023-08-02T23:30:57.657Z,80.16
2023-08-02T23:33:24.505Z,80.72
2023-08-02T23:35:51.332Z,82.10
2023-08-02T23:38:18.140Z,83.09
2023-08-02T23:40:44.901Z,83.71
2023-08-02T23:43:13.066Z,84.24
2023-08-02T23:45:41.342Z,85.17
2023-08-02T23:48:08.137Z,87.35
2023-08-02T23:50:35.557Z,88.08
2023-08-02T23:53:03.574Z,86.87
2023-08-02T23:55:30.634Z,86.83
2023-08-02T23:57:57.305Z,86.86
